createdAt,value
2022-09-02T00:01:40.173Z,49.56
2022-09-02T00:04:12.517Z,49.17
2022-09-02T00:06:41.377Z,49.08
2022-09-02T00:09:13.680Z,48.74
2022-09-02T00:11:43.178Z,48.46
2022-09-02T00:14:15.357Z,48.36
2022-09-02T00:16:51.056Z,48.37
2022-09-02T00:19:21.303Z,48.38
2022-09-02T00:21:50.066Z,48.34
2022-09-02T00:24:19.644Z,48.12
2022-09-02T00:26:48.705Z,48.05
2022-09-02T00:29:17.228Z,47.83
2022-09-02T00:31:47.132Z,47.63
2022-09-02T00:34:15.414Z,47.74
2022-09-02T00:36:43.687Z,47.65
2022-09-02T00:39:11.928Z,47.68
2022-09-02T00:41:43.217Z,47.53
2022-09-02T00:44:13.529Z,47.59
2022-09-02T00:46:41.917Z,47.59
2022-09-02T00:49:13.721Z,47.56
2022-09-02T00:51:47.291Z,47.73
2022-09-02T00:54:17.212Z,47.58
2022-09-02T00:56:48.725Z,47.58
2022-09-02T00:59:24.174Z,47.57
2022-09-02T01:01:52.345Z,47.88
2022-09-02T01:04:20.426Z,48.20
2022-09-02T01:06:49.456Z,48.58
2022-09-02T01:09:18.661Z,49.31
2022-09-02T01:11:55.269Z,50.14
2022-09-02T01:14:24.133Z,50.56
2022-09-02T01:17:02.271Z,50.21
2022-09-02T01:19:34.660Z,50.35
2022-09-02T01:22:15.788Z,50.18
2022-09-02T01:24:44.299Z,50.96
2022-09-02T01:27:16.063Z,50.31
2022-09-02T01:29:44.823Z,50.96
2022-09-02T01:32:13.097Z,50.40
2022-09-02T01:34:41.683Z,50.50
2022-09-02T01:37:11.518Z,50.41
2022-09-02T01:39:40.188Z,50.14
2022-09-02T01:42:08.478Z,50.16
2022-09-02T01:44:43.953Z,49.94
2022-09-02T01:47:12.113Z,49.45
2022-09-02T01:49:40.688Z,50.01
2022-09-02T01:52:10.963Z,49.69
2022-09-02T01:54:39.828Z,49.33
2022-09-02T01:57:09.026Z,49.39
2022-09-02T01:59:37.035Z,49.76
2022-09-02T02:02:05.917Z,50.03
2022-09-02T02:04:35.162Z,49.32
2022-09-02T02:07:05.862Z,50.07
2022-09-02T02:09:35.539Z,49.58
2022-09-02T02:12:06.215Z,50.54
2022-09-02T02:14:34.577Z,50.58
2022-09-02T02:17:03.154Z,51.37
2022-09-02T02:19:31.128Z,50.88
2022-09-02T02:21:59.648Z,50.20
2022-09-02T02:24:27.896Z,50.25
2022-09-02T02:26:57.256Z,50.12
2022-09-02T02:29:25.185Z,50.15
2022-09-02T02:31:53.495Z,49.60
2022-09-02T02:34:21.474Z,49.09
2022-09-02T02:36:49.579Z,49.36
2022-09-02T02:39:17.702Z,49.59
2022-09-02T02:41:46.615Z,49.46
2022-09-02T02:44:16.290Z,49.53
2022-09-02T02:46:45.246Z,49.53
2022-09-02T02:49:13.877Z,49.27
2022-09-02T02:51:42.219Z,49.53
2022-09-02T02:54:11.258Z,49.60
2022-09-02T02:56:39.621Z,49.95
2022-09-02T02:59:08.179Z,49.99
2022-09-02T03:01:37.939Z,50.17
2022-09-02T03:04:06.774Z,49.77
2022-09-02T03:06:35.749Z,49.76
2022-09-02T03:09:05.249Z,49.44
2022-09-02T03:11:33.745Z,49.84
2022-09-02T03:14:02.322Z,49.97
2022-09-02T03:16:30.663Z,50.01
2022-09-02T03:19:00.789Z,51.37
2022-09-02T03:21:28.936Z,51.12
2022-09-02T03:24:07.630Z,51.29
2022-09-02T03:26:35.597Z,51.89
2022-09-02T03:29:04.504Z,52.02
2022-09-02T03:31:33.011Z,52.13
2022-09-02T03:34:02.592Z,52.56
2022-09-02T03:36:33.336Z,53.05
2022-09-02T03:39:02.635Z,53.42
2022-09-02T03:41:30.707Z,53.36
2022-09-02T03:43:59.203Z,53.52
2022-09-02T03:46:29.520Z,53.75
2022-09-02T03:48:57.818Z,53.69
2022-09-02T03:51:28.462Z,54.36
2022-09-02T03:53:57.146Z,55.07
2022-09-02T03:56:25.942Z,54.70
2022-09-02T03:58:54.797Z,54.88
2022-09-02T04:01:27.945Z,54.09
2022-09-02T04:03:58.906Z,53.52
2022-09-02T04:06:32.656Z,53.62
2022-09-02T04:09:01.968Z,54.05
2022-09-02T04:11:30.359Z,54.64
2022-09-02T04:13:59.866Z,55.04
2022-09-02T04:16:28.775Z,55.35
2022-09-02T04:18:59.605Z,55.83
2022-09-02T04:21:32.994Z,56.33
2022-09-02T04:24:01.589Z,56.05
2022-09-02T04:26:30.588Z,56.05
2022-09-02T04:28:58.794Z,56.21
2022-09-02T04:31:29.961Z,56.42
2022-09-02T04:33:59.998Z,56.61
2022-09-02T04:36:30.785Z,56.54
2022-09-02T04:39:00.694Z,56.37
2022-09-02T04:41:32.014Z,56.44
2022-09-02T04:44:01.080Z,56.77
2022-09-02T04:46:34.866Z,56.49
2022-09-02T04:49:04.187Z,56.85
2022-09-02T04:51:34.042Z,56.75
2022-09-02T04:54:02.675Z,57.16
2022-09-02T04:56:32.524Z,56.83
2022-09-02T04:59:01.574Z,56.98
2022-09-02T05:01:32.465Z,56.88
2022-09-02T05:04:02.960Z,57.03
2022-09-02T05:06:34.738Z,55.84
2022-09-02T05:09:05.012Z,55.60
2022-09-02T05:11:34.170Z,56.21
2022-09-02T05:14:06.592Z,55.81
2022-09-02T05:16:37.558Z,57.06
2022-09-02T05:19:09.629Z,57.64
2022-09-02T05:21:42.717Z,57.84
2022-09-02T05:24:11.618Z,58.10
2022-09-02T05:26:43.270Z,57.87
2022-09-02T05:29:12.580Z,57.62
2022-09-02T05:31:42.022Z,57.47
2022-09-02T05:34:11.912Z,56.56
2022-09-02T05:36:41.512Z,55.67
2022-09-02T05:39:09.630Z,55.34
2022-09-02T05:41:38.631Z,55.59
2022-09-02T05:44:08.040Z,56.51
2022-09-02T05:46:37.525Z,55.88
2022-09-02T05:49:09.054Z,55.48
2022-09-02T05:51:45.667Z,55.99
2022-09-02T05:54:16.703Z,56.64
2022-09-02T05:56:47.048Z,56.09
2022-09-02T05:59:15.624Z,55.65
2022-09-02T06:01:44.404Z,55.56
2022-09-02T06:04:12.778Z,55.68
2022-09-02T06:06:42.707Z,55.82
2022-09-02T06:09:12.964Z,55.39
2022-09-02T06:11:45.324Z,54.90
2022-09-02T06:14:16.029Z,56.30
2022-09-02T06:16:45.139Z,55.36
2022-09-02T06:19:19.681Z,55.10
2022-09-02T06:21:51.219Z,54.86
2022-09-02T06:24:19.203Z,55.11
2022-09-02T06:26:50.049Z,54.36
2022-09-02T06:29:26.774Z,54.09
2022-09-02T06:31:55.947Z,53.81
2022-09-02T06:34:27.221Z,54.38
2022-09-02T06:36:57.675Z,54.46
2022-09-02T06:39:26.902Z,54.29
2022-09-02T06:41:55.799Z,53.99
2022-09-02T06:44:24.271Z,54.14
2022-09-02T06:46:56.538Z,54.07
2022-09-02T06:49:26.263Z,54.41
2022-09-02T06:51:56.830Z,53.19
2022-09-02T06:54:27.526Z,53.21
2022-09-02T06:56:57.355Z,53.25
2022-09-02T06:59:25.867Z,52.84
2022-09-02T07:01:54.241Z,52.15
2022-09-02T07:04:40.276Z,52.02
2022-09-02T07:07:09.513Z,52.09
2022-09-02T07:09:40.560Z,51.84
2022-09-02T07:12:09.376Z,51.95
2022-09-02T07:14:39.673Z,51.63
2022-09-02T07:17:09.684Z,51.34
2022-09-02T07:19:38.386Z,50.99
2022-09-02T07:22:07.594Z,50.76
2022-09-02T07:24:40.204Z,50.51
2022-09-02T07:27:08.664Z,50.33
2022-09-02T07:29:37.073Z,50.19
2022-09-02T07:32:06.135Z,50.11
2022-09-02T07:34:34.249Z,49.85
2022-09-02T07:37:07.337Z,49.64
2022-09-02T07:39:38.143Z,49.23
2022-09-02T07:42:08.382Z,49.09
2022-09-02T07:44:36.727Z,48.93
2022-09-02T07:47:06.662Z,48.77
2022-09-02T07:52:25.341Z,48.58
2022-09-02T07:54:55.503Z,48.40
2022-09-02T07:57:25.394Z,48.22
2022-09-02T07:59:54.067Z,47.76
2022-09-02T08:02:22.070Z,47.58
2022-09-02T08:04:51.186Z,47.40
2022-09-02T08:07:24.141Z,46.99
2022-09-02T08:09:52.514Z,47.04
2022-09-02T08:12:22.281Z,46.16
2022-09-02T08:14:51.966Z,46.28
2022-09-02T08:17:20.270Z,45.97
2022-09-02T08:19:48.265Z,46.06
2022-09-02T08:22:16.215Z,45.74
2022-09-02T08:24:44.362Z,45.65
2022-09-02T08:27:12.348Z,45.51
2022-09-02T08:29:40.212Z,45.39
2022-09-02T08:32:09.893Z,44.94
2022-09-02T08:34:37.834Z,44.69
2022-09-02T08:37:06.691Z,44.49
2022-09-02T08:39:35.013Z,44.23
2022-09-02T08:42:09.591Z,44.10
2022-09-02T08:44:40.057Z,41.79
2022-09-02T08:47:15.262Z,42.99
2022-09-02T08:49:47.136Z,42.28
2022-09-02T08:52:22.425Z,41.83
2022-09-02T08:54:55.515Z,42.39
2022-09-02T08:57:25.141Z,42.24
2022-09-02T08:59:54.088Z,42.01
2022-09-02T09:02:29.691Z,41.78
2022-09-02T09:05:20.523Z,39.93
2022-09-02T09:08:00.557Z,37.67
2022-09-02T09:10:37.031Z,39.54
2022-09-02T09:13:37.196Z,40.03
2022-09-02T09:16:17.775Z,36.42
2022-09-02T09:18:53.879Z,38.32
2022-09-02T09:23:56.600Z,40.04
2022-09-02T09:26:30.172Z,39.92
2022-09-02T09:28:59.650Z,37.42
2022-09-02T09:31:31.285Z,39.92
2022-09-02T09:34:02.659Z,37.94
2022-09-02T09:36:53.531Z,37.82
2022-09-02T09:39:27.309Z,35.01
2022-09-02T09:41:57.334Z,38.37
2022-09-02T09:44:39.222Z,38.82
2022-09-02T09:47:14.720Z,35.42
2022-09-02T09:49:47.447Z,38.07
2022-09-02T09:52:23.934Z,38.49
2022-09-02T09:55:12.781Z,34.72
2022-09-02T09:57:44.586Z,33.76
2022-09-02T10:00:19.926Z,37.36
2022-09-02T10:02:50.429Z,37.05
2022-09-02T10:05:30.687Z,37.24
2022-09-02T10:08:01.946Z,34.35
2022-09-02T10:10:32.322Z,37.90
2022-09-02T10:13:16.891Z,37.59
2022-09-02T10:15:58.391Z,36.99
2022-09-02T10:18:36.518Z,33.44
2022-09-02T10:21:15.121Z,33.30
2022-09-02T10:23:52.698Z,33.63
2022-09-02T10:26:29.865Z,32.85
2022-09-02T10:29:39.966Z,32.92
2022-09-02T10:32:24.482Z,30.34
2022-09-02T10:35:04.818Z,31.10
2022-09-02T10:37:44.111Z,31.72
2022-09-02T10:40:15.944Z,31.41
2022-09-02T10:43:02.610Z,33.63
2022-09-02T10:45:35.921Z,30.52
2022-09-02T10:48:22.465Z,34.49
2022-09-02T10:50:56.724Z,30.41
2022-09-02T10:53:38.812Z,32.27
2022-09-02T10:56:12.116Z,31.35
2022-09-02T10:58:49.770Z,32.21
2022-09-02T11:01:24.602Z,31.21
2022-09-02T11:04:02.718Z,32.89
2022-09-02T11:06:52.080Z,31.60
2022-09-02T11:09:32.680Z,33.75
2022-09-02T11:12:07.634Z,31.78
2022-09-02T11:14:41.816Z,32.07
2022-09-02T11:17:24.467Z,32.05
2022-09-02T11:19:58.784Z,29.77
2022-09-02T11:22:32.442Z,32.43
2022-09-02T11:25:09.088Z,32.17
2022-09-02T11:27:43.999Z,30.31
2022-09-02T11:30:17.666Z,29.80
2022-09-02T11:32:51.738Z,31.27
2022-09-02T11:35:27.388Z,33.08
2022-09-02T11:38:01.982Z,33.03
2022-09-02T11:40:37.713Z,31.90
2022-09-02T11:43:23.492Z,30.39
2022-09-02T11:46:27.955Z,28.92
2022-09-02T11:49:32.832Z,27.99
2022-09-02T11:52:40.784Z,27.35
2022-09-02T11:55:12.643Z,27.02
2022-09-02T11:57:41.891Z,31.20
2022-09-02T12:00:26.597Z,31.33
2022-09-02T12:03:35.499Z,29.29
2022-09-02T12:06:09.496Z,28.83
2022-09-02T12:09:12.110Z,27.18
2022-09-02T12:11:53.141Z,25.84
2022-09-02T12:15:08.191Z,30.65
2022-09-02T12:17:40.720Z,25.89
2022-09-02T12:20:11.638Z,29.67
2022-09-02T12:22:42.068Z,30.58
2022-09-02T12:25:40.407Z,30.18
2022-09-02T12:28:26.371Z,25.67
2022-09-02T12:31:15.767Z,25.65
2022-09-02T12:33:51.679Z,26.34
2022-09-02T12:36:48.808Z,27.02
2022-09-02T12:39:54.524Z,26.21
2022-09-02T12:42:28.942Z,27.18
2022-09-02T12:45:07.316Z,29.13
2022-09-02T12:47:50.266Z,27.93
2022-09-02T12:50:26.448Z,28.15
2022-09-02T12:53:12.746Z,28.28
2022-09-02T12:55:55.084Z,26.82
2022-09-02T12:58:24.138Z,27.89
2022-09-02T13:01:01.100Z,30.46
2022-09-02T13:03:42.426Z,28.32
2022-09-02T13:06:20.917Z,27.48
2022-09-02T13:09:10.646Z,28.77
2022-09-02T13:12:19.842Z,26.74
2022-09-02T13:14:59.894Z,25.61
2022-09-02T13:17:42.236Z,27.57
2022-09-02T13:20:53.699Z,29.29
2022-09-02T13:24:00.379Z,25.83
2022-09-02T13:26:54.729Z,25.93
2022-09-02T13:29:46.409Z,25.76
2022-09-02T13:32:22.113Z,25.25
2022-09-02T13:34:54.998Z,29.13
2022-09-02T13:37:31.855Z,29.38
2022-09-02T13:40:05.053Z,26.66
2022-09-02T13:42:33.330Z,28.89
2022-09-02T13:45:12.814Z,28.93
2022-09-02T13:47:44.528Z,26.25
2022-09-02T13:50:14.391Z,28.31
2022-09-02T13:53:45.226Z,30.00
2022-09-02T13:55:35.539Z,28.93
2022-09-02T13:58:06.252Z,29.44
2022-09-02T14:00:37.551Z,29.50
2022-09-02T14:03:07.869Z,29.45
2022-09-02T14:05:40.947Z,30.34
2022-09-02T14:08:15.461Z,29.74
2022-09-02T14:10:45.983Z,28.41
2022-09-02T14:13:16.262Z,29.68
2022-09-02T14:15:44.371Z,29.63
2022-09-02T14:18:18.036Z,29.49
2022-09-02T14:21:00.280Z,28.30
2022-09-02T14:23:30.441Z,27.49
2022-09-02T14:26:01.825Z,30.17
2022-09-02T14:28:32.674Z,29.87
2022-09-02T14:31:02.956Z,30.30
2022-09-02T14:33:43.236Z,30.43
2022-09-02T14:36:30.746Z,28.54
2022-09-02T14:39:12.269Z,29.61
2022-09-02T14:41:48.188Z,28.53
2022-09-02T14:44:24.596Z,29.16
2022-09-02T14:46:56.808Z,28.79
2022-09-02T14:49:28.287Z,30.05
2022-09-02T14:51:59.769Z,29.95
2022-09-02T14:54:37.069Z,29.50
2022-09-02T14:57:20.143Z,27.79
2022-09-02T14:59:48.151Z,29.11
2022-09-02T15:02:24.973Z,29.56
2022-09-02T15:04:53.337Z,28.50
2022-09-02T15:07:21.664Z,29.97
2022-09-02T15:09:51.328Z,30.27
2022-09-02T15:12:24.646Z,30.25
2022-09-02T15:14:53.158Z,29.61
2022-09-02T15:17:21.790Z,30.29
2022-09-02T15:19:49.740Z,30.41
2022-09-02T15:22:20.025Z,29.89
2022-09-02T15:24:49.157Z,29.95
2022-09-02T15:27:21.592Z,30.25
2022-09-02T15:29:51.360Z,30.18
2022-09-02T15:32:19.539Z,29.88
2022-09-02T15:34:47.616Z,30.39
2022-09-02T15:37:15.692Z,30.66
2022-09-02T15:39:44.879Z,30.42
2022-09-02T15:42:12.890Z,30.65
2022-09-02T15:44:40.736Z,30.59
2022-09-02T15:47:10.270Z,29.75
2022-09-02T15:49:38.319Z,29.82
2022-09-02T15:52:06.304Z,29.64
2022-09-02T15:54:34.509Z,29.71
2022-09-02T15:57:02.452Z,30.03
2022-09-02T15:59:30.324Z,30.36
2022-09-02T16:01:59.514Z,30.36
2022-09-02T16:04:30.154Z,30.53
2022-09-02T16:06:58.528Z,30.67
2022-09-02T16:09:26.418Z,30.50
2022-09-02T16:11:56.129Z,30.66
2022-09-02T16:14:25.884Z,30.88
2022-09-02T16:16:55.863Z,30.51
2022-09-02T16:19:29.645Z,30.89
2022-09-02T16:22:00.139Z,30.91
2022-09-02T16:24:28.485Z,31.03
2022-09-02T16:26:56.395Z,31.11
2022-09-02T16:29:27.105Z,31.21
2022-09-02T16:32:14.401Z,31.29
2022-09-02T16:34:45.375Z,31.41
2022-09-02T16:37:14.981Z,31.43
2022-09-02T16:39:43.467Z,31.26
2022-09-02T16:42:11.556Z,31.58
2022-09-02T16:44:41.513Z,31.66
2022-09-02T16:47:09.513Z,31.58
2022-09-02T16:49:41.990Z,31.79
2022-09-02T16:52:09.903Z,31.89
2022-09-02T16:54:41.166Z,31.88
2022-09-02T16:57:09.743Z,31.98
2022-09-02T16:59:37.596Z,31.88
2022-09-02T17:02:05.861Z,31.96
2022-09-02T17:04:34.054Z,32.01
2022-09-02T17:07:02.027Z,32.11
2022-09-02T17:09:29.994Z,32.07
2022-09-02T17:11:59.425Z,32.16
2022-09-02T17:14:27.688Z,32.20
2022-09-02T17:16:55.642Z,32.36
2022-09-02T17:19:27.218Z,32.38
2022-09-02T17:21:57.875Z,32.42
2022-09-02T17:24:30.465Z,32.46
2022-09-02T17:27:00.515Z,32.53
2022-09-02T17:29:48.891Z,32.63
2022-09-02T17:32:17.587Z,32.71
2022-09-02T17:34:45.767Z,32.86
2022-09-02T17:37:13.738Z,32.96
2022-09-02T17:39:41.743Z,33.04
2022-09-02T17:42:10.504Z,33.09
2022-09-02T17:44:40.539Z,33.18
2022-09-02T17:47:10.653Z,33.22
2022-09-02T17:49:42.222Z,33.29
2022-09-02T17:52:11.414Z,33.29
2022-09-02T17:54:41.230Z,33.41
2022-09-02T17:57:23.629Z,33.55
2022-09-02T18:00:03.204Z,34.13
2022-09-02T18:03:22.559Z,33.94
2022-09-02T18:06:00.534Z,34.54
2022-09-02T18:08:36.157Z,34.24
2022-09-02T18:11:07.428Z,34.36
2022-09-02T18:13:45.170Z,34.07
2022-09-02T18:16:25.693Z,34.53
2022-09-02T18:19:03.873Z,34.62
2022-09-02T18:21:43.103Z,34.41
2022-09-02T18:24:16.603Z,34.84
2022-09-02T18:26:57.386Z,34.54
2022-09-02T18:29:45.918Z,35.09
2022-09-02T18:32:26.246Z,35.59
2022-09-02T18:35:05.861Z,35.33
2022-09-02T18:37:46.177Z,35.41
2022-09-02T18:40:25.639Z,35.68
2022-09-02T18:43:07.094Z,35.61
2022-09-02T18:45:44.057Z,35.61
2022-09-02T18:48:14.565Z,35.57
2022-09-02T18:50:51.835Z,35.26
2022-09-02T18:53:24.260Z,35.64
2022-09-02T18:55:53.976Z,35.72
2022-09-02T18:58:35.116Z,35.43
2022-09-02T19:01:07.987Z,36.27
2022-09-02T19:03:38.061Z,35.58
2022-09-02T19:06:17.675Z,35.46
2022-09-02T19:08:46.027Z,35.52
2022-09-02T19:11:16.523Z,35.61
2022-09-02T19:13:47.788Z,35.70
2022-09-02T19:16:19.988Z,35.70
2022-09-02T19:18:49.348Z,36.02
2022-09-02T19:21:23.065Z,35.77
2022-09-02T19:23:51.343Z,35.96
2022-09-02T19:26:19.752Z,35.84
2022-09-02T19:28:49.298Z,36.00
2022-09-02T19:31:22.749Z,36.17
2022-09-02T19:33:54.186Z,36.79
2022-09-02T19:36:26.348Z,36.41
2022-09-02T19:38:59.968Z,36.56
2022-09-02T19:41:28.089Z,36.44
2022-09-02T19:43:56.219Z,36.74
2022-09-02T19:47:11.778Z,36.91
2022-09-02T19:49:13.596Z,37.14
2022-09-02T19:51:42.869Z,37.12
2022-09-02T19:54:13.128Z,37.26
2022-09-02T19:56:41.399Z,37.38
2022-09-02T19:59:10.910Z,37.46
2022-09-02T20:01:40.509Z,37.44
2022-09-02T20:04:08.776Z,37.48
2022-09-02T20:06:36.677Z,37.57
2022-09-02T20:09:05.131Z,37.64
2022-09-02T20:11:34.395Z,37.74
2022-09-02T20:14:05.609Z,37.68
2022-09-02T20:16:34.358Z,37.86
2022-09-02T20:19:03.947Z,37.89
2022-09-02T20:21:36.617Z,38.01
2022-09-02T20:24:07.945Z,38.06
2022-09-02T20:26:47.676Z,38.07
2022-09-02T20:29:27.190Z,38.75
2022-09-02T20:32:05.545Z,38.97
2022-09-02T20:34:53.021Z,39.02
2022-09-02T20:37:33.317Z,39.63
2022-09-02T20:40:34.647Z,39.22
2022-09-02T20:43:29.616Z,39.99
2022-09-02T20:46:01.844Z,39.31
2022-09-02T20:48:52.794Z,38.21
2022-09-02T20:51:27.620Z,39.59
2022-09-02T20:54:21.275Z,38.73
2022-09-02T20:56:58.880Z,39.73
2022-09-02T20:59:34.109Z,38.75
2022-09-02T21:02:03.832Z,38.49
2022-09-02T21:04:39.039Z,38.31
2022-09-02T21:07:14.391Z,38.99
2022-09-02T21:09:49.234Z,38.94
2022-09-02T21:12:24.562Z,38.74
2022-09-02T21:15:02.288Z,38.81
2022-09-02T21:17:38.601Z,39.22
2022-09-02T21:20:19.014Z,39.26
2022-09-02T21:22:53.317Z,39.91
2022-09-02T21:25:26.327Z,39.08
2022-09-02T21:27:58.064Z,38.96
2022-09-02T21:30:29.112Z,39.33
2022-09-02T21:33:00.046Z,39.05
2022-09-02T21:35:30.076Z,39.26
2022-09-02T21:38:03.946Z,39.04
2022-09-02T21:40:45.702Z,39.65
2022-09-02T21:43:31.135Z,39.79
2022-09-02T21:46:10.943Z,39.96
2022-09-02T21:48:55.433Z,39.89
2022-09-02T21:51:30.511Z,40.64
2022-09-02T21:54:17.752Z,39.73
2022-09-02T21:57:00.610Z,40.62
2022-09-02T21:59:46.608Z,40.41
2022-09-02T22:02:24.457Z,40.51
2022-09-02T22:05:01.488Z,40.09
2022-09-02T22:07:38.888Z,40.29
2022-09-02T22:10:20.692Z,40.55
2022-09-02T22:12:52.550Z,40.86
2022-09-02T22:15:27.968Z,40.00
2022-09-02T22:18:04.658Z,40.14
2022-09-02T22:20:44.085Z,40.31
2022-09-02T22:23:23.771Z,40.02
2022-09-02T22:25:55.567Z,41.03
2022-09-02T22:28:32.338Z,40.05
2022-09-02T22:31:09.170Z,40.85
2022-09-02T22:33:48.962Z,40.24
2022-09-02T22:36:28.828Z,40.34
2022-09-02T22:38:58.147Z,40.64
2022-09-02T22:41:36.357Z,40.34
2022-09-02T22:44:08.377Z,40.95
2022-09-02T22:47:02.975Z,40.84
2022-09-02T22:49:52.707Z,41.49
2022-09-02T22:52:45.302Z,40.82
2022-09-02T22:55:14.424Z,41.29
2022-09-02T22:57:54.005Z,40.60
2022-09-02T23:00:23.032Z,41.50
2022-09-02T23:03:01.643Z,40.58
2022-09-02T23:05:49.421Z,41.14
2022-09-02T23:08:20.425Z,41.84
2022-09-02T23:10:56.966Z,40.77
2022-09-02T23:13:41.429Z,41.08
2022-09-02T23:16:19.931Z,41.83
2022-09-02T23:19:04.215Z,41.33
2022-09-02T23:21:39.491Z,41.80
2022-09-02T23:24:19.887Z,41.16
2022-09-02T23:26:58.229Z,41.49
2022-09-02T23:29:27.793Z,41.43
2022-09-02T23:32:32.705Z,40.78
2022-09-02T23:35:17.386Z,42.15
2022-09-02T23:38:05.374Z,41.75
2022-09-02T23:40:39.646Z,41.68
2022-09-02T23:43:07.939Z,41.31
2022-09-02T23:45:37.835Z,40.70
2022-09-02T23:48:22.422Z,40.90
2022-09-02T23:51:06.311Z,41.90
2022-09-02T23:53:41.812Z,42.21
2022-09-02T23:56:23.539Z,41.79
2022-09-02T23:59:09.195Z,42.07
